sensor_id;sensor_type;location;lat;lon;timestamp;temperature;humidity
24446;DHT22;13347;50.984;5.822;2023-09-18T00:01:28;19.30;99.90
24446;DHT22;13347;50.984;5.822;2023-09-18T00:03:55;19.20;99.90
24446;DHT22;13347;50.984;5.822;2023-09-18T00:06:23;19.10;99.90
24446;DHT22;13347;50.984;5.822;2023-09-18T00:08:50;19.10;99.90
24446;DHT22;13347;50.984;5.822;2023-09-18T00:11:20;19.10;99.90
24446;DHT22;13347;50.984;5.822;2023-09-18T00:13:47;19.10;99.90
24446;DHT22;13347;50.984;5.822;2023-09-18T00:16:14;19.10;99.90
24446;DHT22;13347;50.984;5.822;2023-09-18T00:18:42;19.00;99.90
24446;DHT22;13347;50.984;5.822;2023-09-18T00:21:09;19.00;99.90
24446;DHT22;13347;50.984;5.822;2023-09-18T00:23:37;18.90;99.90
24446;DHT22;13347;50.984;5.822;2023-09-18T00:26:04;18.90;99.90
24446;DHT22;13347;50.984;5.822;2023-09-18T00:28:33;18.90;99.90
24446;DHT22;13347;50.984;5.822;2023-09-18T00:31:00;18.80;99.90
24446;DHT22;13347;50.984;5.822;2023-09-18T00:33:27;18.90;99.90
24446;DHT22;13347;50.984;5.822;2023-09-18T00:35:54;18.90;99.90
24446;DHT22;13347;50.984;5.822;2023-09-18T00:38:21;19.10;99.90
24446;DHT22;13347;50.984;5.822;2023-09-18T00:40:48;19.00;99.90
24446;DHT22;13347;50.984;5.822;2023-09-18T00:43:15;19.10;99.90
24446;DHT22;13347;50.984;5.822;2023-09-18T00:45:45;19.20;99.90
24446;DHT22;13347;50.984;5.822;2023-09-18T00:48:12;19.60;99.90
24446;DHT22;13347;50.984;5.822;2023-09-18T00:50:41;19.50;99.90
24446;DHT22;13347;50.984;5.822;2023-09-18T00:53:11;19.70;99.90
24446;DHT22;13347;50.984;5.822;2023-09-18T00:55:40;19.60;99.90
24446;DHT22;13347;50.984;5.822;2023-09-18T00:58:07;19.50;99.90
24446;DHT22;13347;50.984;5.822;2023-09-18T01:00:34;19.40;99.90
24446;DHT22;13347;50.984;5.822;2023-09-18T01:03:03;19.40;99.90
24446;DHT22;13347;50.984;5.822;2023-09-18T01:05:31;19.60;99.90
24446;DHT22;13347;50.984;5.822;2023-09-18T01:07:58;20.00;99.90
24446;DHT22;13347;50.984;5.822;2023-09-18T01:10:27;20.10;99.90
24446;DHT22;13347;50.984;5.822;2023-09-18T01:12:58;20.40;99.90
24446;DHT22;13347;50.984;5.822;2023-09-18T01:15:30;20.50;99.90
24446;DHT22;13347;50.984;5.822;2023-09-18T01:17:57;20.20;99.90
24446;DHT22;13347;50.984;5.822;2023-09-18T01:20:25;19.90;99.90
24446;DHT22;13347;50.984;5.822;2023-09-18T01:22:54;19.80;99.90
24446;DHT22;13347;50.984;5.822;2023-09-18T01:25:21;19.70;99.90
24446;DHT22;13347;50.984;5.822;2023-09-18T01:27:48;19.60;99.90
24446;DHT22;13347;50.984;5.822;2023-09-18T01:30:17;19.60;99.90
24446;DHT22;13347;50.984;5.822;2023-09-18T01:32:44;19.80;99.90
24446;DHT22;13347;50.984;5.822;2023-09-18T01:35:12;19.70;99.90
24446;DHT22;13347;50.984;5.822;2023-09-18T01:37:40;19.90;99.90
24446;DHT22;13347;50.984;5.822;2023-09-18T01:40:09;20.10;99.90
24446;DHT22;13347;50.984;5.822;2023-09-18T01:42:36;20.30;99.90
24446;DHT22;13347;50.984;5.822;2023-09-18T01:45:04;20.30;99.90
24446;DHT22;13347;50.984;5.822;2023-09-18T01:47:32;20.40;99.90
24446;DHT22;13347;50.984;5.822;2023-09-18T01:50:02;20.40;99.90
24446;DHT22;13347;50.984;5.822;2023-09-18T01:52:30;20.40;99.90
24446;DHT22;13347;50.984;5.822;2023-09-18T01:54:57;20.60;99.90
24446;DHT22;13347;50.984;5.822;2023-09-18T01:57:26;20.60;99.90
24446;DHT22;13347;50.984;5.822;2023-09-18T01:59:53;20.60;99.90
24446;DHT22;13347;50.984;5.822;2023-09-18T02:02:20;20.60;99.90
24446;DHT22;13347;50.984;5.822;2023-09-18T02:04:48;20.70;99.90
24446;DHT22;13347;50.984;5.822;2023-09-18T02:07:15;20.70;99.90
24446;DHT22;13347;50.984;5.822;2023-09-18T02:09:42;20.70;99.90
24446;DHT22;13347;50.984;5.822;2023-09-18T02:12:09;20.70;99.90
24446;DHT22;13347;50.984;5.822;2023-09-18T02:14:38;20.60;99.90
24446;DHT22;13347;50.984;5.822;2023-09-18T02:17:05;20.40;99.90
24446;DHT22;13347;50.984;5.822;2023-09-18T02:19:32;20.50;99.90
24446;DHT22;13347;50.984;5.822;2023-09-18T02:22:00;20.50;99.90
24446;DHT22;13347;50.984;5.822;2023-09-18T02:24:28;20.50;99.90
24446;DHT22;13347;50.984;5.822;2023-09-18T02:26:55;20.70;99.90
24446;DHT22;13347;50.984;5.822;2023-09-18T02:29:22;21.00;99.90
24446;DHT22;13347;50.984;5.822;2023-09-18T02:31:51;21.00;99.90
24446;DHT22;13347;50.984;5.822;2023-09-18T02:34:18;21.10;99.90
24446;DHT22;13347;50.984;5.822;2023-09-18T02:36:45;21.10;99.90
24446;DHT22;13347;50.984;5.822;2023-09-18T02:39:13;21.30;99.90
24446;DHT22;13347;50.984;5.822;2023-09-18T02:41:40;21.30;99.90
24446;DHT22;13347;50.984;5.822;2023-09-18T02:44:07;21.40;99.90
24446;DHT22;13347;50.984;5.822;2023-09-18T02:46:36;21.40;99.90
24446;DHT22;13347;50.984;5.822;2023-09-18T02:49:05;21.40;99.90
24446;DHT22;13347;50.984;5.822;2023-09-18T02:51:32;21.50;99.90
24446;DHT22;13347;50.984;5.822;2023-09-18T02:53:59;21.50;93.40
24446;DHT22;13347;50.984;5.822;2023-09-18T02:56:26;21.50;78.50
24446;DHT22;13347;50.984;5.822;2023-09-18T02:58:53;21.50;56.90
24446;DHT22;13347;50.984;5.822;2023-09-18T03:01:20;21.40;73.10
24446;DHT22;13347;50.984;5.822;2023-09-18T03:03:50;21.40;79.80
24446;DHT22;13347;50.984;5.822;2023-09-18T03:06:19;21.50;85.50
24446;DHT22;13347;50.984;5.822;2023-09-18T03:08:46;21.50;99.90
24446;DHT22;13347;50.984;5.822;2023-09-18T03:11:13;21.50;99.90
24446;DHT22;13347;50.984;5.822;2023-09-18T03:13:45;21.30;99.90
24446;DHT22;13347;50.984;5.822;2023-09-18T03:16:12;21.20;99.90
24446;DHT22;13347;50.984;5.822;2023-09-18T03:18:39;21.10;99.90
24446;DHT22;13347;50.984;5.822;2023-09-18T03:21:06;20.90;99.90
24446;DHT22;13347;50.984;5.822;2023-09-18T03:23:35;20.80;99.90
24446;DHT22;13347;50.984;5.822;2023-09-18T03:26:02;20.80;99.90
24446;DHT22;13347;50.984;5.822;2023-09-18T03:28:29;20.70;99.90
24446;DHT22;13347;50.984;5.822;2023-09-18T03:30:57;20.70;99.90
24446;DHT22;13347;50.984;5.822;2023-09-18T03:33:23;20.60;99.90
24446;DHT22;13347;50.984;5.822;2023-09-18T03:35:51;20.50;99.90
24446;DHT22;13347;50.984;5.822;2023-09-18T03:38:20;20.50;99.90
24446;DHT22;13347;50.984;5.822;2023-09-18T03:40:49;20.50;99.90
24446;DHT22;13347;50.984;5.822;2023-09-18T03:43:16;20.40;99.90
24446;DHT22;13347;50.984;5.822;2023-09-18T03:45:43;20.50;99.90
24446;DHT22;13347;50.984;5.822;2023-09-18T03:48:10;20.70;99.90
24446;DHT22;13347;50.984;5.822;2023-09-18T03:50:37;20.70;99.90
24446;DHT22;13347;50.984;5.822;2023-09-18T03:53:05;20.90;99.90
24446;DHT22;13347;50.984;5.822;2023-09-18T03:55:32;20.90;99.90
24446;DHT22;13347;50.984;5.822;2023-09-18T03:58:01;20.90;99.90
24446;DHT22;13347;50.984;5.822;2023-09-18T04:00:29;20.80;99.90
24446;DHT22;13347;50.984;5.822;2023-09-18T04:02:57;20.80;99.90
24446;DHT22;13347;50.984;5.822;2023-09-18T04:05:24;20.80;99.90
24446;DHT22;13347;50.984;5.822;2023-09-18T04:07:51;20.90;99.90
24446;DHT22;13347;50.984;5.822;2023-09-18T04:10:18;20.80;99.90
24446;DHT22;13347;50.984;5.822;2023-09-18T04:12:48;20.80;99.90
24446;DHT22;13347;50.984;5.822;2023-09-18T04:15:17;20.80;99.90
24446;DHT22;13347;50.984;5.822;2023-09-18T04:17:44;20.80;99.90
24446;DHT22;13347;50.984;5.822;2023-09-18T04:20:11;20.80;99.90
24446;DHT22;13347;50.984;5.822;2023-09-18T04:22:42;20.80;99.90
24446;DHT22;13347;50.984;5.822;2023-09-18T04:25:10;20.80;99.90
24446;DHT22;13347;50.984;5.822;2023-09-18T04:27:37;20.80;99.90
24446;DHT22;13347;50.984;5.822;2023-09-18T04:30:05;20.70;99.90
24446;DHT22;13347;50.984;5.822;2023-09-18T04:32:36;20.80;99.90
24446;DHT22;13347;50.984;5.822;2023-09-18T04:35:04;20.70;99.90
24446;DHT22;13347;50.984;5.822;2023-09-18T04:37:35;20.70;99.90
24446;DHT22;13347;50.984;5.822;2023-09-18T04:40:03;20.60;99.90
24446;DHT22;13347;50.984;5.822;2023-09-18T04:42:31;20.60;99.90
24446;DHT22;13347;50.984;5.822;2023-09-18T04:44:58;20.70;99.90
24446;DHT22;13347;50.984;5.822;2023-09-18T04:47:25;20.70;99.90
24446;DHT22;13347;50.984;5.822;2023-09-18T04:49:54;20.70;99.90
24446;DHT22;13347;50.984;5.822;2023-09-18T04:52:21;20.70;99.90
24446;DHT22;13347;50.984;5.822;2023-09-18T04:54:48;20.70;99.90
24446;DHT22;13347;50.984;5.822;2023-09-18T04:57:15;20.70;99.90
24446;DHT22;13347;50.984;5.822;2023-09-18T04:59:42;20.60;99.90
24446;DHT22;13347;50.984;5.822;2023-09-18T05:02:10;20.60;99.90
24446;DHT22;13347;50.984;5.822;2023-09-18T05:04:37;20.60;99.90
24446;DHT22;13347;50.984;5.822;2023-09-18T05:07:05;20.60;99.90
24446;DHT22;13347;50.984;5.822;2023-09-18T05:09:32;20.60;99.90
24446;DHT22;13347;50.984;5.822;2023-09-18T05:12:00;20.60;99.90
24446;DHT22;13347;50.984;5.822;2023-09-18T05:14:27;20.60;99.90
24446;DHT22;13347;50.984;5.822;2023-09-18T05:16:54;20.50;99.90
24446;DHT22;13347;50.984;5.822;2023-09-18T05:19:21;20.50;99.90
24446;DHT22;13347;50.984;5.822;2023-09-18T05:21:48;20.50;99.90
24446;DHT22;13347;50.984;5.822;2023-09-18T05:24:17;20.40;99.90
24446;DHT22;13347;50.984;5.822;2023-09-18T05:26:52;20.40;99.90
24446;DHT22;13347;50.984;5.822;2023-09-18T05:29:19;20.30;99.90
24446;DHT22;13347;50.984;5.822;2023-09-18T05:31:46;20.30;99.90
24446;DHT22;13347;50.984;5.822;2023-09-18T05:34:13;20.30;99.90
24446;DHT22;13347;50.984;5.822;2023-09-18T05:36:40;20.30;99.90
24446;DHT22;13347;50.984;5.822;2023-09-18T05:39:08;20.30;99.90
24446;DHT22;13347;50.984;5.822;2023-09-18T05:41:39;20.30;99.90
24446;DHT22;13347;50.984;5.822;2023-09-18T05:44:07;20.40;99.90
24446;DHT22;13347;50.984;5.822;2023-09-18T05:46:35;20.30;99.90
24446;DHT22;13347;50.984;5.822;2023-09-18T05:49:02;20.30;99.90
24446;DHT22;13347;50.984;5.822;2023-09-18T05:51:29;20.30;99.90
24446;DHT22;13347;50.984;5.822;2023-09-18T05:53:57;20.30;99.90
24446;DHT22;13347;50.984;5.822;2023-09-18T05:56:24;20.30;99.90
24446;DHT22;13347;50.984;5.822;2023-09-18T05:58:52;20.20;99.90
24446;DHT22;13347;50.984;5.822;2023-09-18T06:01:20;20.20;99.90
24446;DHT22;13347;50.984;5.822;2023-09-18T06:03:47;20.20;99.90
24446;DHT22;13347;50.984;5.822;2023-09-18T06:06:14;20.20;99.90
24446;DHT22;13347;50.984;5.822;2023-09-18T06:08:42;20.20;99.90
24446;DHT22;13347;50.984;5.822;2023-09-18T06:11:09;20.20;99.90
24446;DHT22;13347;50.984;5.822;2023-09-18T06:13:36;20.20;99.90
24446;DHT22;13347;50.984;5.822;2023-09-18T06:16:06;20.20;99.90
24446;DHT22;13347;50.984;5.822;2023-09-18T06:18:34;20.20;99.90
24446;DHT22;13347;50.984;5.822;2023-09-18T06:21:04;20.20;99.90
24446;DHT22;13347;50.984;5.822;2023-09-18T06:23:31;20.20;99.90
24446;DHT22;13347;50.984;5.822;2023-09-18T06:25:59;20.20;99.90
24446;DHT22;13347;50.984;5.822;2023-09-18T06:28:27;20.20;99.90
24446;DHT22;13347;50.984;5.822;2023-09-18T06:30:54;20.20;99.90
24446;DHT22;13347;50.984;5.822;2023-09-18T06:33:23;20.20;99.90
24446;DHT22;13347;50.984;5.822;2023-09-18T06:35:50;20.20;99.90
24446;DHT22;13347;50.984;5.822;2023-09-18T06:38:18;20.20;99.90
24446;DHT22;13347;50.984;5.822;2023-09-18T06:40:46;20.20;99.90
24446;DHT22;13347;50.984;5.822;2023-09-18T06:43:13;20.20;99.90
24446;DHT22;13347;50.984;5.822;2023-09-18T06:45:40;20.20;99.90
24446;DHT22;13347;50.984;5.822;2023-09-18T06:48:08;20.20;99.90
24446;DHT22;13347;50.984;5.822;2023-09-18T06:50:36;20.20;99.90
24446;DHT22;13347;50.984;5.822;2023-09-18T06:53:05;20.30;99.90
24446;DHT22;13347;50.984;5.822;2023-09-18T06:55:32;20.30;99.90
24446;DHT22;13347;50.984;5.822;2023-09-18T06:57:59;20.30;99.90
24446;DHT22;13347;50.984;5.822;2023-09-18T07:00:26;20.30;99.90
24446;DHT22;13347;50.984;5.822;2023-09-18T07:02:53;20.30;99.90
24446;DHT22;13347;50.984;5.822;2023-09-18T07:05:21;20.30;99.90
24446;DHT22;13347;50.984;5.822;2023-09-18T07:07:49;20.20;99.90
24446;DHT22;13347;50.984;5.822;2023-09-18T07:10:17;20.30;99.90
24446;DHT22;13347;50.984;5.822;2023-09-18T07:12:44;20.20;99.90
24446;DHT22;13347;50.984;5.822;2023-09-18T07:15:11;20.20;99.90
24446;DHT22;13347;50.984;5.822;2023-09-18T07:17:38;20.20;99.90
24446;DHT22;13347;50.984;5.822;2023-09-18T07:20:06;20.20;99.90
24446;DHT22;13347;50.984;5.822;2023-09-18T07:22:39;20.20;99.90
24446;DHT22;13347;50.984;5.822;2023-09-18T07:25:08;20.20;99.90
24446;DHT22;13347;50.984;5.822;2023-09-18T07:27:35;20.20;99.90
24446;DHT22;13347;50.984;5.822;2023-09-18T07:30:04;20.20;99.90
24446;DHT22;13347;50.984;5.822;2023-09-18T07:32:32;20.10;99.90
24446;DHT22;13347;50.984;5.822;2023-09-18T07:34:59;20.20;99.90
24446;DHT22;13347;50.984;5.822;2023-09-18T07:37:26;20.20;99.90
24446;DHT22;13347;50.984;5.822;2023-09-18T07:39:53;20.20;99.90
24446;DHT22;13347;50.984;5.822;2023-09-18T07:42:25;20.30;99.90
24446;DHT22;13347;50.984;5.822;2023-09-18T07:44:53;20.30;99.90
24446;DHT22;13347;50.984;5.822;2023-09-18T07:47:20;20.30;99.90
24446;DHT22;13347;50.984;5.822;2023-09-18T07:49:48;20.30;99.90
24446;DHT22;13347;50.984;5.822;2023-09-18T07:52:16;20.40;99.90
24446;DHT22;13347;50.984;5.822;2023-09-18T07:54:43;20.40;99.90
24446;DHT22;13347;50.984;5.822;2023-09-18T07:57:10;20.40;99.90
24446;DHT22;13347;50.984;5.822;2023-09-18T07:59:39;20.40;99.90
24446;DHT22;13347;50.984;5.822;2023-09-18T08:02:08;20.40;99.90
24446;DHT22;13347;50.984;5.822;2023-09-18T08:04:35;20.50;99.90
24446;DHT22;13347;50.984;5.822;2023-09-18T08:07:03;20.50;99.90
24446;DHT22;13347;50.984;5.822;2023-09-18T08:09:31;20.60;93.00
24446;DHT22;13347;50.984;5.822;2023-09-18T08:12:01;20.50;90.90
24446;DHT22;13347;50.984;5.822;2023-09-18T08:14:29;20.60;62.30
24446;DHT22;13347;50.984;5.822;2023-09-18T08:16:57;20.50;66.80
24446;DHT22;13347;50.984;5.822;2023-09-18T08:19:25;20.50;72.60
24446;DHT22;13347;50.984;5.822;2023-09-18T08:21:53;20.50;59.40
24446;DHT22;13347;50.984;5.822;2023-09-18T08:24:21;20.60;48.10
24446;DHT22;13347;50.984;5.822;2023-09-18T08:26:49;20.70;17.00
24446;DHT22;13347;50.984;5.822;2023-09-18T08:29:16;20.70;1.00
24446;DHT22;13347;50.984;5.822;2023-09-18T08:31:43;20.90;2.40
24446;DHT22;13347;50.984;5.822;2023-09-18T08:34:12;21.10;1.00
24446;DHT22;13347;50.984;5.822;2023-09-18T08:36:39;21.10;1.00
24446;DHT22;13347;50.984;5.822;2023-09-18T08:39:06;21.30;1.00
24446;DHT22;13347;50.984;5.822;2023-09-18T08:41:35;21.20;1.00
24446;DHT22;13347;50.984;5.822;2023-09-18T08:44:04;21.20;1.00
24446;DHT22;13347;50.984;5.822;2023-09-18T08:46:34;21.10;1.00
24446;DHT22;13347;50.984;5.822;2023-09-18T08:49:03;21.10;1.00
24446;DHT22;13347;50.984;5.822;2023-09-18T08:51:32;21.10;1.00
24446;DHT22;13347;50.984;5.822;2023-09-18T08:54:00;21.10;1.00
24446;DHT22;13347;50.984;5.822;2023-09-18T08:56:28;21.10;1.00
24446;DHT22;13347;50.984;5.822;2023-09-18T08:58:55;21.40;1.00
24446;DHT22;13347;50.984;5.822;2023-09-18T09:01:23;21.40;1.00
24446;DHT22;13347;50.984;5.822;2023-09-18T09:03:50;22.10;1.00
24446;DHT22;13347;50.984;5.822;2023-09-18T09:06:18;22.00;1.00
24446;DHT22;13347;50.984;5.822;2023-09-18T09:08:46;22.20;1.00
24446;DHT22;13347;50.984;5.822;2023-09-18T09:11:13;22.70;99.90
24446;DHT22;13347;50.984;5.822;2023-09-18T09:13:41;22.80;1.00
24446;DHT22;13347;50.984;5.822;2023-09-18T09:16:08;22.70;1.00
24446;DHT22;13347;50.984;5.822;2023-09-18T09:18:45;23.20;1.00
24446;DHT22;13347;50.984;5.822;2023-09-18T09:21:14;23.40;99.90
24446;DHT22;13347;50.984;5.822;2023-09-18T09:23:45;23.20;1.00
24446;DHT22;13347;50.984;5.822;2023-09-18T09:26:16;23.40;1.00
24446;DHT22;13347;50.984;5.822;2023-09-18T09:28:44;23.40;1.00
24446;DHT22;13347;50.984;5.822;2023-09-18T09:31:11;23.60;1.00
24446;DHT22;13347;50.984;5.822;2023-09-18T09:33:40;23.50;1.00
24446;DHT22;13347;50.984;5.822;2023-09-18T09:36:16;23.80;1.00
24446;DHT22;13347;50.984;5.822;2023-09-18T09:38:43;23.90;1.00
24446;DHT22;13347;50.984;5.822;2023-09-18T09:41:13;23.60;99.90
24446;DHT22;13347;50.984;5.822;2023-09-18T09:43:42;23.60;99.90
24446;DHT22;13347;50.984;5.822;2023-09-18T09:46:14;23.40;99.90
24446;DHT22;13347;50.984;5.822;2023-09-18T09:51:25;24.00;34.50
24446;DHT22;13347;50.984;5.822;2023-09-18T09:53:52;24.10;1.00
24446;DHT22;13347;50.984;5.822;2023-09-18T09:56:19;23.80;1.00
24446;DHT22;13347;50.984;5.822;2023-09-18T09:59:02;24.00;1.00
24446;DHT22;13347;50.984;5.822;2023-09-18T10:01:31;24.70;1.00
24446;DHT22;13347;50.984;5.822;2023-09-18T10:03:59;24.10;1.00
24446;DHT22;13347;50.984;5.822;2023-09-18T10:06:27;23.80;1.00
24446;DHT22;13347;50.984;5.822;2023-09-18T10:08:56;23.70;1.00
24446;DHT22;13347;50.984;5.822;2023-09-18T10:11:23;23.40;1.00
24446;DHT22;13347;50.984;5.822;2023-09-18T10:13:52;23.50;1.00
24446;DHT22;13347;50.984;5.822;2023-09-18T10:16:22;23.10;1.00
24446;DHT22;13347;50.984;5.822;2023-09-18T10:18:56;22.90;1.00
24446;DHT22;13347;50.984;5.822;2023-09-18T10:21:30;23.50;1.00
24446;DHT22;13347;50.984;5.822;2023-09-18T10:24:04;23.60;1.00
24446;DHT22;13347;50.984;5.822;2023-09-18T10:26:38;23.30;1.00
24446;DHT22;13347;50.984;5.822;2023-09-18T10:29:07;23.10;1.00
24446;DHT22;13347;50.984;5.822;2023-09-18T10:31:39;23.00;1.00
24446;DHT22;13347;50.984;5.822;2023-09-18T10:34:07;23.50;1.00
24446;DHT22;13347;50.984;5.822;2023-09-18T10:36:34;23.80;1.00
24446;DHT22;13347;50.984;5.822;2023-09-18T10:39:03;23.90;1.00
24446;DHT22;13347;50.984;5.822;2023-09-18T10:41:34;23.70;1.00
24446;DHT22;13347;50.984;5.822;2023-09-18T10:44:02;23.40;1.00
24446;DHT22;13347;50.984;5.822;2023-09-18T10:46:30;23.00;1.00
24446;DHT22;13347;50.984;5.822;2023-09-18T10:48:59;23.00;1.00
24446;DHT22;13347;50.984;5.822;2023-09-18T10:51:28;23.10;1.00
24446;DHT22;13347;50.984;5.822;2023-09-18T10:53:56;23.30;1.00
24446;DHT22;13347;50.984;5.822;2023-09-18T10:56:24;23.70;1.00
24446;DHT22;13347;50.984;5.822;2023-09-18T10:58:56;24.00;1.00
24446;DHT22;13347;50.984;5.822;2023-09-18T11:01:24;24.40;1.00
24446;DHT22;13347;50.984;5.822;2023-09-18T11:03:53;23.90;1.00
24446;DHT22;13347;50.984;5.822;2023-09-18T11:06:21;24.10;1.00
24446;DHT22;13347;50.984;5.822;2023-09-18T11:08:58;24.60;99.90
24446;DHT22;13347;50.984;5.822;2023-09-18T11:11:27;24.10;99.90
24446;DHT22;13347;50.984;5.822;2023-09-18T11:13:55;23.60;99.90
24446;DHT22;13347;50.984;5.822;2023-09-18T11:16:35;23.90;99.90
24446;DHT22;13347;50.984;5.822;2023-09-18T11:19:08;24.00;99.90
24446;DHT22;13347;50.984;5.822;2023-09-18T11:21:37;23.60;99.90
24446;DHT22;13347;50.984;5.822;2023-09-18T11:24:05;24.10;99.90
24446;DHT22;13347;50.984;5.822;2023-09-18T11:26:37;24.40;99.90
24446;DHT22;13347;50.984;5.822;2023-09-18T11:29:05;24.20;46.70
24446;DHT22;13347;50.984;5.822;2023-09-18T11:31:41;24.00;99.90
24446;DHT22;13347;50.984;5.822;2023-09-18T11:34:12;23.90;99.90
24446;DHT22;13347;50.984;5.822;2023-09-18T11:36:41;24.10;12.90
24446;DHT22;13347;50.984;5.822;2023-09-18T11:39:08;24.30;1.00
24446;DHT22;13347;50.984;5.822;2023-09-18T11:41:37;24.80;1.00
24446;DHT22;13347;50.984;5.822;2023-09-18T11:46:50;23.90;1.00
24446;DHT22;13347;50.984;5.822;2023-09-18T11:49:19;24.20;1.00
24446;DHT22;13347;50.984;5.822;2023-09-18T11:51:49;24.60;1.00
24446;DHT22;13347;50.984;5.822;2023-09-18T11:54:16;25.00;1.00
24446;DHT22;13347;50.984;5.822;2023-09-18T11:56:44;24.80;1.00
24446;DHT22;13347;50.984;5.822;2023-09-18T11:59:12;24.30;1.00
24446;DHT22;13347;50.984;5.822;2023-09-18T12:01:39;24.20;1.00
24446;DHT22;13347;50.984;5.822;2023-09-18T12:04:06;24.20;1.00
24446;DHT22;13347;50.984;5.822;2023-09-18T12:06:34;24.70;1.00
24446;DHT22;13347;50.984;5.822;2023-09-18T12:09:03;24.80;1.00
24446;DHT22;13347;50.984;5.822;2023-09-18T12:11:32;24.80;1.00
24446;DHT22;13347;50.984;5.822;2023-09-18T12:14:00;25.30;1.00
24446;DHT22;13347;50.984;5.822;2023-09-18T12:16:29;25.40;99.90
24446;DHT22;13347;50.984;5.822;2023-09-18T12:18:56;24.70;99.90
24446;DHT22;13347;50.984;5.822;2023-09-18T12:21:24;24.30;99.90
24446;DHT22;13347;50.984;5.822;2023-09-18T12:23:52;24.30;1.00
24446;DHT22;13347;50.984;5.822;2023-09-18T12:26:21;24.00;99.90
24446;DHT22;13347;50.984;5.822;2023-09-18T12:28:50;23.50;99.90
24446;DHT22;13347;50.984;5.822;2023-09-18T12:31:17;23.40;99.90
24446;DHT22;13347;50.984;5.822;2023-09-18T12:33:44;23.40;1.00
24446;DHT22;13347;50.984;5.822;2023-09-18T12:36:13;24.50;1.00
24446;DHT22;13347;50.984;5.822;2023-09-18T12:38:40;25.00;1.00
24446;DHT22;13347;50.984;5.822;2023-09-18T12:41:08;24.80;99.90
24446;DHT22;13347;50.984;5.822;2023-09-18T12:43:39;25.40;99.90
24446;DHT22;13347;50.984;5.822;2023-09-18T12:46:07;25.40;99.90
24446;DHT22;13347;50.984;5.822;2023-09-18T12:48:36;25.40;99.90
24446;DHT22;13347;50.984;5.822;2023-09-18T12:51:03;24.70;1.00
24446;DHT22;13347;50.984;5.822;2023-09-18T12:53:31;24.40;1.00
24446;DHT22;13347;50.984;5.822;2023-09-18T12:56:08;24.20;1.00
24446;DHT22;13347;50.984;5.822;2023-09-18T12:58:35;24.50;1.00
24446;DHT22;13347;50.984;5.822;2023-09-18T13:01:07;24.80;1.00
24446;DHT22;13347;50.984;5.822;2023-09-18T13:03:35;24.40;1.00
24446;DHT22;13347;50.984;5.822;2023-09-18T13:06:06;24.60;1.00
24446;DHT22;13347;50.984;5.822;2023-09-18T13:08:34;24.30;1.00
24446;DHT22;13347;50.984;5.822;2023-09-18T13:11:01;24.70;1.00
24446;DHT22;13347;50.984;5.822;2023-09-18T13:13:30;25.00;1.00
24446;DHT22;13347;50.984;5.822;2023-09-18T13:15:57;24.70;1.00
24446;DHT22;13347;50.984;5.822;2023-09-18T13:18:26;24.90;1.00
24446;DHT22;13347;50.984;5.822;2023-09-18T13:20:53;25.10;1.00
24446;DHT22;13347;50.984;5.822;2023-09-18T13:23:27;25.20;1.00
24446;DHT22;13347;50.984;5.822;2023-09-18T13:25:58;25.80;1.00
24446;DHT22;13347;50.984;5.822;2023-09-18T13:28:26;26.20;1.00
24446;DHT22;13347;50.984;5.822;2023-09-18T13:30:53;26.30;1.00
24446;DHT22;13347;50.984;5.822;2023-09-18T13:33:20;25.50;1.00
24446;DHT22;13347;50.984;5.822;2023-09-18T13:35:49;24.70;1.00
24446;DHT22;13347;50.984;5.822;2023-09-18T13:38:16;25.00;1.00
24446;DHT22;13347;50.984;5.822;2023-09-18T13:40:44;25.40;1.00
24446;DHT22;13347;50.984;5.822;2023-09-18T13:43:12;25.70;1.00
24446;DHT22;13347;50.984;5.822;2023-09-18T13:45:41;25.80;1.00
24446;DHT22;13347;50.984;5.822;2023-09-18T13:48:08;25.70;1.00
24446;DHT22;13347;50.984;5.822;2023-09-18T13:50:36;25.80;1.00
24446;DHT22;13347;50.984;5.822;2023-09-18T13:53:04;25.20;1.00
24446;DHT22;13347;50.984;5.822;2023-09-18T13:55:32;25.70;1.00
24446;DHT22;13347;50.984;5.822;2023-09-18T13:57:59;26.20;1.00
24446;DHT22;13347;50.984;5.822;2023-09-18T14:00:28;25.90;1.00
24446;DHT22;13347;50.984;5.822;2023-09-18T14:02:56;25.80;1.00
24446;DHT22;13347;50.984;5.822;2023-09-18T14:05:23;25.80;99.90
24446;DHT22;13347;50.984;5.822;2023-09-18T14:07:52;25.20;99.90
24446;DHT22;13347;50.984;5.822;2023-09-18T14:10:26;25.10;99.90
24446;DHT22;13347;50.984;5.822;2023-09-18T14:12:54;25.40;99.90
24446;DHT22;13347;50.984;5.822;2023-09-18T14:15:22;25.70;99.90
24446;DHT22;13347;50.984;5.822;2023-09-18T14:17:50;25.70;99.90
24446;DHT22;13347;50.984;5.822;2023-09-18T14:20:17;25.60;99.90
24446;DHT22;13347;50.984;5.822;2023-09-18T14:22:45;25.50;99.90
24446;DHT22;13347;50.984;5.822;2023-09-18T14:25:15;25.30;99.90
24446;DHT22;13347;50.984;5.822;2023-09-18T14:27:44;25.10;99.90
24446;DHT22;13347;50.984;5.822;2023-09-18T14:30:11;25.20;99.90
24446;DHT22;13347;50.984;5.822;2023-09-18T14:32:39;25.30;99.90
24446;DHT22;13347;50.984;5.822;2023-09-18T14:35:06;25.10;99.90
24446;DHT22;13347;50.984;5.822;2023-09-18T14:37:34;25.20;99.90
24446;DHT22;13347;50.984;5.822;2023-09-18T14:40:02;25.50;99.90
24446;DHT22;13347;50.984;5.822;2023-09-18T14:42:29;25.70;99.90
24446;DHT22;13347;50.984;5.822;2023-09-18T14:44:58;25.80;99.90
24446;DHT22;13347;50.984;5.822;2023-09-18T14:47:26;25.90;99.90
24446;DHT22;13347;50.984;5.822;2023-09-18T14:49:53;25.80;95.20
24446;DHT22;13347;50.984;5.822;2023-09-18T14:52:20;26.10;99.90
24446;DHT22;13347;50.984;5.822;2023-09-18T14:54:50;26.40;99.90
24446;DHT22;13347;50.984;5.822;2023-09-18T14:57:17;26.50;99.90
24446;DHT22;13347;50.984;5.822;2023-09-18T14:59:44;25.60;2.80
24446;DHT22;13347;50.984;5.822;2023-09-18T15:02:14;24.90;1.00
24446;DHT22;13347;50.984;5.822;2023-09-18T15:04:43;24.70;1.00
24446;DHT22;13347;50.984;5.822;2023-09-18T15:07:10;24.60;1.00
24446;DHT22;13347;50.984;5.822;2023-09-18T15:09:38;24.60;1.00
24446;DHT22;13347;50.984;5.822;2023-09-18T15:12:05;24.90;1.00
24446;DHT22;13347;50.984;5.822;2023-09-18T15:14:34;25.40;1.00
24446;DHT22;13347;50.984;5.822;2023-09-18T15:17:01;25.30;1.00
24446;DHT22;13347;50.984;5.822;2023-09-18T15:19:30;25.20;5.60
24446;DHT22;13347;50.984;5.822;2023-09-18T15:21:58;25.20;1.00
24446;DHT22;13347;50.984;5.822;2023-09-18T15:24:26;25.20;1.00
24446;DHT22;13347;50.984;5.822;2023-09-18T15:26:54;25.20;1.00
24446;DHT22;13347;50.984;5.822;2023-09-18T15:29:22;25.00;1.00
24446;DHT22;13347;50.984;5.822;2023-09-18T15:31:49;24.90;1.00
24446;DHT22;13347;50.984;5.822;2023-09-18T15:34:16;24.50;1.00
24446;DHT22;13347;50.984;5.822;2023-09-18T15:36:45;24.40;1.00
24446;DHT22;13347;50.984;5.822;2023-09-18T15:39:12;24.40;1.00
24446;DHT22;13347;50.984;5.822;2023-09-18T15:41:39;24.60;1.00
24446;DHT22;13347;50.984;5.822;2023-09-18T15:44:06;24.70;1.00
24446;DHT22;13347;50.984;5.822;2023-09-18T15:46:36;24.40;1.00